sensor_id;sensor_type;location;lat;lon;timestamp;P1;durP1;ratioP1;P2;durP2;ratioP2
14235;SDS011;7202;50.718;7.072;2024-02-21T00:01:56;11.40;;;4.95;;
14235;SDS011;7202;50.718;7.072;2024-02-21T00:04:26;9.82;;;4.57;;
14235;SDS011;7202;50.718;7.072;2024-02-21T00:06:54;7.65;;;4.38;;
14235;SDS011;7202;50.718;7.072;2024-02-21T00:09:23;9.30;;;4.38;;
14235;SDS011;7202;50.718;7.072;2024-02-21T00:11:51;8.75;;;4.40;;
14235;SDS011;7202;50.718;7.072;2024-02-21T00:14:20;8.13;;;4.40;;
14235;SDS011;7202;50.718;7.072;2024-02-21T00:16:48;12.50;;;4.82;;
14235;SDS011;7202;50.718;7.072;2024-02-21T00:19:17;9.50;;;5.00;;
14235;SDS011;7202;50.718;7.072;2024-02-21T00:21:47;7.22;;;4.15;;
14235;SDS011;7202;50.718;7.072;2024-02-21T00:24:15;9.90;;;4.90;;
14235;SDS011;7202;50.718;7.072;2024-02-21T00:26:44;10.77;;;4.20;;
14235;SDS011;7202;50.718;7.072;2024-02-21T00:29:12;6.95;;;4.22;;
14235;SDS011;7202;50.718;7.072;2024-02-21T00:31:41;12.73;;;4.32;;
14235;SDS011;7202;50.718;7.072;2024-02-21T00:34:11;7.20;;;4.00;;
14235;SDS011;7202;50.718;7.072;2024-02-21T00:36:40;10.90;;;4.47;;
14235;SDS011;7202;50.718;7.072;2024-02-21T00:39:10;10.45;;;4.32;;
14235;SDS011;7202;50.718;7.072;2024-02-21T00:41:38;9.85;;;4.50;;
14235;SDS011;7202;50.718;7.072;2024-02-21T00:44:07;10.63;;;4.55;;
14235;SDS011;7202;50.718;7.072;2024-02-21T00:46:37;15.00;;;4.75;;
14235;SDS011;7202;50.718;7.072;2024-02-21T00:49:06;7.72;;;3.45;;
14235;SDS011;7202;50.718;7.072;2024-02-21T00:51:34;12.77;;;4.55;;
14235;SDS011;7202;50.718;7.072;2024-02-21T00:54:03;13.43;;;4.88;;
14235;SDS011;7202;50.718;7.072;2024-02-21T00:56:34;9.55;;;4.45;;
14235;SDS011;7202;50.718;7.072;2024-02-21T00:59:02;7.78;;;3.38;;
14235;SDS011;7202;50.718;7.072;2024-02-21T01:01:31;11.38;;;4.93;;
14235;SDS011;7202;50.718;7.072;2024-02-21T01:04:00;8.63;;;4.55;;
14235;SDS011;7202;50.718;7.072;2024-02-21T01:06:28;6.70;;;4.05;;
14235;SDS011;7202;50.718;7.072;2024-02-21T01:08:57;8.32;;;4.40;;
14235;SDS011;7202;50.718;7.072;2024-02-21T01:11:26;9.27;;;3.45;;
14235;SDS011;7202;50.718;7.072;2024-02-21T01:13:56;10.68;;;4.22;;
14235;SDS011;7202;50.718;7.072;2024-02-21T01:16:25;10.77;;;4.00;;
14235;SDS011;7202;50.718;7.072;2024-02-21T01:18:54;8.15;;;4.20;;
14235;SDS011;7202;50.718;7.072;2024-02-21T01:21:22;13.07;;;4.53;;
14235;SDS011;7202;50.718;7.072;2024-02-21T01:23:51;6.80;;;4.05;;
14235;SDS011;7202;50.718;7.072;2024-02-21T01:26:19;10.50;;;4.15;;
14235;SDS011;7202;50.718;7.072;2024-02-21T01:28:48;7.90;;;3.97;;
14235;SDS011;7202;50.718;7.072;2024-02-21T01:31:17;9.23;;;3.95;;
14235;SDS011;7202;50.718;7.072;2024-02-21T01:33:46;10.48;;;3.90;;
14235;SDS011;7202;50.718;7.072;2024-02-21T01:36:14;9.75;;;3.92;;
14235;SDS011;7202;50.718;7.072;2024-02-21T01:38:43;9.50;;;3.85;;
14235;SDS011;7202;50.718;7.072;2024-02-21T01:41:11;6.82;;;3.67;;
14235;SDS011;7202;50.718;7.072;2024-02-21T01:43:40;8.68;;;4.25;;
14235;SDS011;7202;50.718;7.072;2024-02-21T01:46:08;7.15;;;3.45;;
14235;SDS011;7202;50.718;7.072;2024-02-21T01:48:38;11.25;;;3.85;;
14235;SDS011;7202;50.718;7.072;2024-02-21T01:51:07;7.47;;;3.58;;
14235;SDS011;7202;50.718;7.072;2024-02-21T01:53:38;6.60;;;3.40;;
14235;SDS011;7202;50.718;7.072;2024-02-21T01:56:10;8.68;;;4.05;;
14235;SDS011;7202;50.718;7.072;2024-02-21T01:58:41;10.00;;;4.18;;
14235;SDS011;7202;50.718;7.072;2024-02-21T02:01:10;12.52;;;4.63;;
14235;SDS011;7202;50.718;7.072;2024-02-21T02:03:42;7.75;;;3.60;;
14235;SDS011;7202;50.718;7.072;2024-02-21T02:06:13;9.38;;;3.53;;
14235;SDS011;7202;50.718;7.072;2024-02-21T02:08:42;7.80;;;3.35;;
14235;SDS011;7202;50.718;7.072;2024-02-21T02:11:13;9.60;;;3.92;;
14235;SDS011;7202;50.718;7.072;2024-02-21T02:13:42;6.80;;;3.50;;
14235;SDS011;7202;50.718;7.072;2024-02-21T02:16:10;8.45;;;3.42;;
14235;SDS011;7202;50.718;7.072;2024-02-21T02:18:39;9.00;;;3.63;;
14235;SDS011;7202;50.718;7.072;2024-02-21T02:21:10;6.88;;;3.60;;
14235;SDS011;7202;50.718;7.072;2024-02-21T02:23:58;6.10;;;3.05;;
14235;SDS011;7202;50.718;7.072;2024-02-21T02:26:27;7.40;;;2.90;;
14235;SDS011;7202;50.718;7.072;2024-02-21T02:28:55;10.48;;;3.33;;
14235;SDS011;7202;50.718;7.072;2024-02-21T02:31:24;7.22;;;4.43;;
14235;SDS011;7202;50.718;7.072;2024-02-21T02:33:52;11.93;;;3.95;;
14235;SDS011;7202;50.718;7.072;2024-02-21T02:36:21;14.52;;;4.18;;
14235;SDS011;7202;50.718;7.072;2024-02-21T02:38:50;10.23;;;4.40;;
14235;SDS011;7202;50.718;7.072;2024-02-21T02:41:19;11.20;;;4.25;;
14235;SDS011;7202;50.718;7.072;2024-02-21T02:43:48;9.50;;;3.63;;
14235;SDS011;7202;50.718;7.072;2024-02-21T02:46:16;10.68;;;4.00;;
14235;SDS011;7202;50.718;7.072;2024-02-21T02:48:45;9.73;;;3.80;;
14235;SDS011;7202;50.718;7.072;2024-02-21T02:51:13;8.68;;;3.83;;
14235;SDS011;7202;50.718;7.072;2024-02-21T02:53:42;7.88;;;3.50;;
14235;SDS011;7202;50.718;7.072;2024-02-21T02:56:13;9.50;;;3.85;;
14235;SDS011;7202;50.718;7.072;2024-02-21T02:58:44;11.65;;;4.28;;
14235;SDS011;7202;50.718;7.072;2024-02-21T03:01:13;6.28;;;3.60;;
14235;SDS011;7202;50.718;7.072;2024-02-21T03:03:41;10.65;;;3.55;;
14235;SDS011;7202;50.718;7.072;2024-02-21T03:06:12;11.98;;;4.35;;
14235;SDS011;7202;50.718;7.072;2024-02-21T03:08:40;10.57;;;4.43;;
14235;SDS011;7202;50.718;7.072;2024-02-21T03:11:09;7.95;;;4.13;;
14235;SDS011;7202;50.718;7.072;2024-02-21T03:13:39;12.23;;;4.45;;
14235;SDS011;7202;50.718;7.072;2024-02-21T03:16:08;10.43;;;3.38;;
14235;SDS011;7202;50.718;7.072;2024-02-21T03:18:37;13.57;;;4.70;;
14235;SDS011;7202;50.718;7.072;2024-02-21T03:21:06;11.38;;;3.75;;
14235;SDS011;7202;50.718;7.072;2024-02-21T03:23:34;11.10;;;4.20;;
14235;SDS011;7202;50.718;7.072;2024-02-21T03:26:03;12.13;;;4.25;;
14235;SDS011;7202;50.718;7.072;2024-02-21T03:28:31;4.70;;;3.42;;
14235;SDS011;7202;50.718;7.072;2024-02-21T03:31:00;10.05;;;3.72;;
14235;SDS011;7202;50.718;7.072;2024-02-21T03:33:30;9.57;;;3.53;;
14235;SDS011;7202;50.718;7.072;2024-02-21T03:35:58;10.82;;;3.10;;
14235;SDS011;7202;50.718;7.072;2024-02-21T03:38:28;10.77;;;3.17;;
14235;SDS011;7202;50.718;7.072;2024-02-21T03:40:57;11.20;;;3.83;;
14235;SDS011;7202;50.718;7.072;2024-02-21T03:43:26;7.93;;;3.35;;
14235;SDS011;7202;50.718;7.072;2024-02-21T03:45:54;8.48;;;4.22;;
14235;SDS011;7202;50.718;7.072;2024-02-21T03:48:23;10.38;;;3.90;;
14235;SDS011;7202;50.718;7.072;2024-02-21T03:50:53;8.70;;;4.00;;
14235;SDS011;7202;50.718;7.072;2024-02-21T03:53:21;10.63;;;3.25;;
14235;SDS011;7202;50.718;7.072;2024-02-21T03:55:50;11.30;;;4.00;;
14235;SDS011;7202;50.718;7.072;2024-02-21T03:58:18;8.73;;;4.30;;
14235;SDS011;7202;50.718;7.072;2024-02-21T04:00:47;9.55;;;3.72;;
14235;SDS011;7202;50.718;7.072;2024-02-21T04:03:16;6.82;;;3.50;;
14235;SDS011;7202;50.718;7.072;2024-02-21T04:05:44;8.02;;;3.65;;
14235;SDS011;7202;50.718;7.072;2024-02-21T04:08:14;10.10;;;3.85;;
14235;SDS011;7202;50.718;7.072;2024-02-21T04:10:42;8.90;;;3.95;;
14235;SDS011;7202;50.718;7.072;2024-02-21T04:13:11;7.00;;;3.53;;
14235;SDS011;7202;50.718;7.072;2024-02-21T04:15:40;9.43;;;3.53;;
14235;SDS011;7202;50.718;7.072;2024-02-21T04:18:08;10.07;;;3.95;;
14235;SDS011;7202;50.718;7.072;2024-02-21T04:20:37;9.35;;;4.00;;
14235;SDS011;7202;50.718;7.072;2024-02-21T04:23:05;13.38;;;4.40;;
14235;SDS011;7202;50.718;7.072;2024-02-21T04:25:35;9.05;;;3.60;;
14235;SDS011;7202;50.718;7.072;2024-02-21T04:28:04;11.32;;;3.40;;
14235;SDS011;7202;50.718;7.072;2024-02-21T04:30:33;5.22;;;3.13;;
14235;SDS011;7202;50.718;7.072;2024-02-21T04:33:02;8.85;;;3.30;;
14235;SDS011;7202;50.718;7.072;2024-02-21T04:35:30;14.02;;;3.50;;
14235;SDS011;7202;50.718;7.072;2024-02-21T04:37:59;13.90;;;4.03;;
14235;SDS011;7202;50.718;7.072;2024-02-21T04:40:28;7.97;;;3.83;;
14235;SDS011;7202;50.718;7.072;2024-02-21T04:42:59;9.65;;;3.17;;
14235;SDS011;7202;50.718;7.072;2024-02-21T04:45:27;8.00;;;3.10;;
14235;SDS011;7202;50.718;7.072;2024-02-21T04:47:56;10.05;;;3.38;;
14235;SDS011;7202;50.718;7.072;2024-02-21T04:50:24;8.02;;;3.03;;
14235;SDS011;7202;50.718;7.072;2024-02-21T04:52:53;14.50;;;4.57;;
14235;SDS011;7202;50.718;7.072;2024-02-21T04:55:22;8.05;;;3.35;;
14235;SDS011;7202;50.718;7.072;2024-02-21T04:57:50;9.13;;;3.30;;
14235;SDS011;7202;50.718;7.072;2024-02-21T05:00:20;8.40;;;3.70;;
14235;SDS011;7202;50.718;7.072;2024-02-21T05:02:49;7.38;;;3.53;;
14235;SDS011;7202;50.718;7.072;2024-02-21T05:05:18;12.73;;;3.88;;
14235;SDS011;7202;50.718;7.072;2024-02-21T05:07:46;10.75;;;3.60;;
14235;SDS011;7202;50.718;7.072;2024-02-21T05:10:15;8.18;;;3.50;;
14235;SDS011;7202;50.718;7.072;2024-02-21T05:12:44;6.50;;;3.58;;
14235;SDS011;7202;50.718;7.072;2024-02-21T05:15:13;10.25;;;4.03;;
14235;SDS011;7202;50.718;7.072;2024-02-21T05:17:43;10.38;;;3.80;;
14235;SDS011;7202;50.718;7.072;2024-02-21T05:20:11;9.52;;;3.55;;
14235;SDS011;7202;50.718;7.072;2024-02-21T05:22:40;6.55;;;3.10;;
14235;SDS011;7202;50.718;7.072;2024-02-21T05:25:09;6.50;;;3.22;;
14235;SDS011;7202;50.718;7.072;2024-02-21T05:27:37;9.48;;;3.60;;
14235;SDS011;7202;50.718;7.072;2024-02-21T05:30:06;6.57;;;2.97;;
14235;SDS011;7202;50.718;7.072;2024-02-21T05:32:35;5.63;;;2.90;;
14235;SDS011;7202;50.718;7.072;2024-02-21T05:35:05;9.75;;;3.00;;
14235;SDS011;7202;50.718;7.072;2024-02-21T05:37:34;7.55;;;3.38;;
14235;SDS011;7202;50.718;7.072;2024-02-21T05:40:02;7.53;;;3.00;;
14235;SDS011;7202;50.718;7.072;2024-02-21T05:42:31;6.75;;;3.28;;
14235;SDS011;7202;50.718;7.072;2024-02-21T05:45:00;8.43;;;3.47;;
14235;SDS011;7202;50.718;7.072;2024-02-21T05:47:28;8.20;;;3.25;;
14235;SDS011;7202;50.718;7.072;2024-02-21T05:49:57;10.00;;;3.20;;
14235;SDS011;7202;50.718;7.072;2024-02-21T05:52:27;7.60;;;3.20;;
14235;SDS011;7202;50.718;7.072;2024-02-21T05:54:55;9.07;;;3.53;;
14235;SDS011;7202;50.718;7.072;2024-02-21T05:57:24;9.30;;;3.28;;
14235;SDS011;7202;50.718;7.072;2024-02-21T05:59:52;6.45;;;3.17;;
14235;SDS011;7202;50.718;7.072;2024-02-21T06:02:20;9.18;;;3.88;;
14235;SDS011;7202;50.718;7.072;2024-02-21T06:04:49;8.50;;;3.20;;
14235;SDS011;7202;50.718;7.072;2024-02-21T06:07:18;12.00;;;3.15;;
14235;SDS011;7202;50.718;7.072;2024-02-21T06:09:47;7.95;;;2.85;;
14235;SDS011;7202;50.718;7.072;2024-02-21T06:12:16;9.43;;;3.65;;
14235;SDS011;7202;50.718;7.072;2024-02-21T06:14:45;8.80;;;3.50;;
14235;SDS011;7202;50.718;7.072;2024-02-21T06:17:14;8.45;;;3.55;;
14235;SDS011;7202;50.718;7.072;2024-02-21T06:19:43;10.13;;;3.22;;
14235;SDS011;7202;50.718;7.072;2024-02-21T06:22:12;7.65;;;2.88;;
14235;SDS011;7202;50.718;7.072;2024-02-21T06:24:40;6.65;;;3.50;;
14235;SDS011;7202;50.718;7.072;2024-02-21T06:27:09;10.85;;;3.72;;
14235;SDS011;7202;50.718;7.072;2024-02-21T06:29:38;7.40;;;3.40;;
14235;SDS011;7202;50.718;7.072;2024-02-21T06:32:06;6.82;;;2.95;;
14235;SDS011;7202;50.718;7.072;2024-02-21T06:34:35;9.35;;;3.72;;
14235;SDS011;7202;50.718;7.072;2024-02-21T06:37:04;7.30;;;3.03;;
14235;SDS011;7202;50.718;7.072;2024-02-21T06:39:32;10.90;;;3.67;;
14235;SDS011;7202;50.718;7.072;2024-02-21T06:42:03;11.98;;;4.20;;
14235;SDS011;7202;50.718;7.072;2024-02-21T06:44:33;6.18;;;3.03;;
14235;SDS011;7202;50.718;7.072;2024-02-21T06:47:07;8.23;;;3.35;;
14235;SDS011;7202;50.718;7.072;2024-02-21T06:49:36;9.73;;;3.38;;
14235;SDS011;7202;50.718;7.072;2024-02-21T06:52:05;8.18;;;3.90;;
14235;SDS011;7202;50.718;7.072;2024-02-21T06:54:33;15.07;;;3.42;;
14235;SDS011;7202;50.718;7.072;2024-02-21T06:57:02;10.77;;;3.70;;
14235;SDS011;7202;50.718;7.072;2024-02-21T06:59:32;10.38;;;3.85;;
14235;SDS011;7202;50.718;7.072;2024-02-21T07:02:00;11.63;;;3.58;;
14235;SDS011;7202;50.718;7.072;2024-02-21T07:04:31;11.25;;;3.80;;
14235;SDS011;7202;50.718;7.072;2024-02-21T07:07:00;8.27;;;3.42;;
14235;SDS011;7202;50.718;7.072;2024-02-21T07:09:29;15.38;;;4.13;;
14235;SDS011;7202;50.718;7.072;2024-02-21T07:11:58;8.65;;;3.72;;
14235;SDS011;7202;50.718;7.072;2024-02-21T07:14:27;11.43;;;4.65;;
14235;SDS011;7202;50.718;7.072;2024-02-21T07:16:57;11.55;;;3.70;;
14235;SDS011;7202;50.718;7.072;2024-02-21T07:19:26;11.77;;;4.13;;
14235;SDS011;7202;50.718;7.072;2024-02-21T07:21:55;16.63;;;4.68;;
14235;SDS011;7202;50.718;7.072;2024-02-21T07:24:24;8.93;;;4.85;;
14235;SDS011;7202;50.718;7.072;2024-02-21T07:26:52;12.10;;;4.30;;
14235;SDS011;7202;50.718;7.072;2024-02-21T07:29:22;11.38;;;4.88;;
14235;SDS011;7202;50.718;7.072;2024-02-21T07:31:51;7.68;;;4.18;;
14235;SDS011;7202;50.718;7.072;2024-02-21T07:34:21;9.48;;;4.07;;
14235;SDS011;7202;50.718;7.072;2024-02-21T07:36:50;12.00;;;4.68;;
14235;SDS011;7202;50.718;7.072;2024-02-21T07:39:19;10.07;;;4.15;;
14235;SDS011;7202;50.718;7.072;2024-02-21T07:41:49;11.68;;;4.30;;
14235;SDS011;7202;50.718;7.072;2024-02-21T07:44:18;11.45;;;4.25;;
14235;SDS011;7202;50.718;7.072;2024-02-21T07:46:50;11.77;;;4.72;;
14235;SDS011;7202;50.718;7.072;2024-02-21T07:49:19;12.65;;;3.83;;
14235;SDS011;7202;50.718;7.072;2024-02-21T07:51:49;10.40;;;4.20;;
14235;SDS011;7202;50.718;7.072;2024-02-21T07:54:19;10.05;;;4.40;;
14235;SDS011;7202;50.718;7.072;2024-02-21T07:56:47;11.25;;;3.90;;
14235;SDS011;7202;50.718;7.072;2024-02-21T07:59:16;10.05;;;3.65;;
14235;SDS011;7202;50.718;7.072;2024-02-21T08:01:44;10.32;;;4.00;;
14235;SDS011;7202;50.718;7.072;2024-02-21T08:04:13;7.75;;;3.92;;
14235;SDS011;7202;50.718;7.072;2024-02-21T08:06:42;9.55;;;3.95;;
14235;SDS011;7202;50.718;7.072;2024-02-21T08:09:16;9.05;;;3.60;;
14235;SDS011;7202;50.718;7.072;2024-02-21T08:11:47;10.70;;;3.78;;
14235;SDS011;7202;50.718;7.072;2024-02-21T08:14:16;10.88;;;4.22;;
14235;SDS011;7202;50.718;7.072;2024-02-21T08:16:47;12.38;;;4.03;;
14235;SDS011;7202;50.718;7.072;2024-02-21T08:19:15;12.65;;;4.22;;
14235;SDS011;7202;50.718;7.072;2024-02-21T08:21:45;8.20;;;3.42;;
14235;SDS011;7202;50.718;7.072;2024-02-21T08:24:14;7.80;;;3.63;;
14235;SDS011;7202;50.718;7.072;2024-02-21T08:26:44;9.88;;;4.03;;
14235;SDS011;7202;50.718;7.072;2024-02-21T08:29:13;13.07;;;4.03;;
14235;SDS011;7202;50.718;7.072;2024-02-21T08:31:41;10.30;;;3.63;;
14235;SDS011;7202;50.718;7.072;2024-02-21T08:34:10;8.02;;;4.45;;
14235;SDS011;7202;50.718;7.072;2024-02-21T08:36:40;10.98;;;3.85;;
14235;SDS011;7202;50.718;7.072;2024-02-21T08:39:09;11.02;;;4.13;;
14235;SDS011;7202;50.718;7.072;2024-02-21T08:41:37;12.55;;;3.95;;
14235;SDS011;7202;50.718;7.072;2024-02-21T08:44:24;9.95;;;4.10;;
14235;SDS011;7202;50.718;7.072;2024-02-21T08:46:54;10.52;;;3.90;;
14235;SDS011;7202;50.718;7.072;2024-02-21T08:49:24;7.85;;;3.70;;
14235;SDS011;7202;50.718;7.072;2024-02-21T08:52:00;16.65;;;4.88;;
14235;SDS011;7202;50.718;7.072;2024-02-21T08:54:29;11.23;;;4.32;;
14235;SDS011;7202;50.718;7.072;2024-02-21T08:56:58;9.02;;;3.28;;
14235;SDS011;7202;50.718;7.072;2024-02-21T08:59:28;9.07;;;4.28;;
14235;SDS011;7202;50.718;7.072;2024-02-21T09:01:56;10.23;;;4.18;;
14235;SDS011;7202;50.718;7.072;2024-02-21T09:04:25;12.38;;;3.92;;
14235;SDS011;7202;50.718;7.072;2024-02-21T09:06:54;8.57;;;4.13;;
14235;SDS011;7202;50.718;7.072;2024-02-21T09:09:22;10.18;;;4.32;;
14235;SDS011;7202;50.718;7.072;2024-02-21T09:11:55;10.80;;;3.80;;
14235;SDS011;7202;50.718;7.072;2024-02-21T09:14:24;12.27;;;4.25;;
14235;SDS011;7202;50.718;7.072;2024-02-21T09:16:54;9.07;;;3.60;;
14235;SDS011;7202;50.718;7.072;2024-02-21T09:19:23;11.70;;;4.15;;
14235;SDS011;7202;50.718;7.072;2024-02-21T09:21:52;12.23;;;4.22;;
14235;SDS011;7202;50.718;7.072;2024-02-21T09:24:20;12.15;;;4.20;;
14235;SDS011;7202;50.718;7.072;2024-02-21T09:26:49;13.90;;;4.38;;
14235;SDS011;7202;50.718;7.072;2024-02-21T09:29:17;9.95;;;3.90;;
14235;SDS011;7202;50.718;7.072;2024-02-21T09:31:50;7.57;;;3.47;;
14235;SDS011;7202;50.718;7.072;2024-02-21T09:34:20;10.43;;;3.88;;
14235;SDS011;7202;50.718;7.072;2024-02-21T09:36:49;11.15;;;3.22;;
14235;SDS011;7202;50.718;7.072;2024-02-21T09:39:18;8.68;;;2.90;;
14235;SDS011;7202;50.718;7.072;2024-02-21T09:41:50;10.98;;;3.83;;
14235;SDS011;7202;50.718;7.072;2024-02-21T09:44:23;6.75;;;3.17;;
14235;SDS011;7202;50.718;7.072;2024-02-21T09:47:01;11.18;;;3.88;;
14235;SDS011;7202;50.718;7.072;2024-02-21T09:49:34;9.00;;;4.28;;
14235;SDS011;7202;50.718;7.072;2024-02-21T09:52:05;10.80;;;3.85;;
14235;SDS011;7202;50.718;7.072;2024-02-21T09:54:34;10.98;;;4.35;;
14235;SDS011;7202;50.718;7.072;2024-02-21T09:57:03;9.23;;;3.78;;
14235;SDS011;7202;50.718;7.072;2024-02-21T09:59:33;8.52;;;3.60;;
14235;SDS011;7202;50.718;7.072;2024-02-21T10:02:01;10.80;;;3.50;;
14235;SDS011;7202;50.718;7.072;2024-02-21T10:04:31;12.02;;;3.60;;
14235;SDS011;7202;50.718;7.072;2024-02-21T10:07:02;5.85;;;3.17;;
14235;SDS011;7202;50.718;7.072;2024-02-21T10:09:31;8.02;;;3.33;;
14235;SDS011;7202;50.718;7.072;2024-02-21T10:12:07;4.82;;;2.90;;
14235;SDS011;7202;50.718;7.072;2024-02-21T10:14:36;6.78;;;3.20;;
14235;SDS011;7202;50.718;7.072;2024-02-21T10:17:05;10.98;;;3.22;;
14235;SDS011;7202;50.718;7.072;2024-02-21T10:19:39;7.13;;;2.72;;
14235;SDS011;7202;50.718;7.072;2024-02-21T10:22:08;8.13;;;3.22;;
14235;SDS011;7202;50.718;7.072;2024-02-21T10:24:37;6.53;;;2.90;;
14235;SDS011;7202;50.718;7.072;2024-02-21T10:27:08;10.70;;;3.40;;
14235;SDS011;7202;50.718;7.072;2024-02-21T10:29:39;7.07;;;3.63;;
14235;SDS011;7202;50.718;7.072;2024-02-21T10:32:09;8.25;;;3.45;;
14235;SDS011;7202;50.718;7.072;2024-02-21T10:34:41;8.60;;;2.70;;
14235;SDS011;7202;50.718;7.072;2024-02-21T10:37:11;9.25;;;3.38;;
14235;SDS011;7202;50.718;7.072;2024-02-21T10:39:40;7.10;;;2.80;;
14235;SDS011;7202;50.718;7.072;2024-02-21T10:42:11;7.63;;;3.15;;
14235;SDS011;7202;50.718;7.072;2024-02-21T10:44:40;9.30;;;2.70;;
14235;SDS011;7202;50.718;7.072;2024-02-21T10:47:11;5.15;;;2.90;;
14235;SDS011;7202;50.718;7.072;2024-02-21T10:49:42;7.85;;;2.92;;
14235;SDS011;7202;50.718;7.072;2024-02-21T10:52:17;5.63;;;2.70;;
14235;SDS011;7202;50.718;7.072;2024-02-21T10:54:58;6.68;;;2.83;;
14235;SDS011;7202;50.718;7.072;2024-02-21T10:57:31;7.68;;;2.80;;
14235;SDS011;7202;50.718;7.072;2024-02-21T11:00:00;8.57;;;3.35;;
14235;SDS011;7202;50.718;7.072;2024-02-21T11:02:30;6.40;;;2.92;;
14235;SDS011;7202;50.718;7.072;2024-02-21T11:05:00;8.45;;;2.72;;
14235;SDS011;7202;50.718;7.072;2024-02-21T11:07:32;5.95;;;2.70;;
14235;SDS011;7202;50.718;7.072;2024-02-21T11:10:03;7.32;;;3.30;;
14235;SDS011;7202;50.718;7.072;2024-02-21T11:12:34;7.05;;;2.80;;
14235;SDS011;7202;50.718;7.072;2024-02-21T11:15:03;7.43;;;2.38;;
14235;SDS011;7202;50.718;7.072;2024-02-21T11:17:32;9.52;;;2.40;;
14235;SDS011;7202;50.718;7.072;2024-02-21T11:20:18;7.00;;;2.72;;
14235;SDS011;7202;50.718;7.072;2024-02-21T11:22:48;7.25;;;2.85;;
14235;SDS011;7202;50.718;7.072;2024-02-21T11:25:21;6.93;;;2.75;;
14235;SDS011;7202;50.718;7.072;2024-02-21T11:27:50;6.03;;;2.10;;
14235;SDS011;7202;50.718;7.072;2024-02-21T11:30:26;4.30;;;2.72;;
14235;SDS011;7202;50.718;7.072;2024-02-21T11:32:59;10.10;;;2.80;;
14235;SDS011;7202;50.718;7.072;2024-02-21T11:35:34;5.95;;;2.60;;
14235;SDS011;7202;50.718;7.072;2024-02-21T11:38:10;10.25;;;2.83;;
14235;SDS011;7202;50.718;7.072;2024-02-21T11:40:44;5.97;;;2.72;;
14235;SDS011;7202;50.718;7.072;2024-02-21T11:43:13;5.32;;;2.50;;
14235;SDS011;7202;50.718;7.072;2024-02-21T11:45:43;7.25;;;2.92;;
14235;SDS011;7202;50.718;7.072;2024-02-21T11:48:11;8.30;;;2.70;;
14235;SDS011;7202;50.718;7.072;2024-02-21T11:50:41;9.00;;;3.30;;
14235;SDS011;7202;50.718;7.072;2024-02-21T11:53:10;5.32;;;2.58;;
14235;SDS011;7202;50.718;7.072;2024-02-21T11:55:39;7.97;;;2.80;;
14235;SDS011;7202;50.718;7.072;2024-02-21T11:58:07;6.90;;;2.85;;
14235;SDS011;7202;50.718;7.072;2024-02-21T12:00:36;11.60;;;3.20;;
14235;SDS011;7202;50.718;7.072;2024-02-21T12:03:04;9.27;;;3.05;;
14235;SDS011;7202;50.718;7.072;2024-02-21T12:05:33;8.68;;;2.97;;
14235;SDS011;7202;50.718;7.072;2024-02-21T12:08:04;5.28;;;2.75;;
14235;SDS011;7202;50.718;7.072;2024-02-21T12:10:33;7.25;;;2.75;;
14235;SDS011;7202;50.718;7.072;2024-02-21T12:13:06;9.88;;;3.03;;
14235;SDS011;7202;50.718;7.072;2024-02-21T12:15:35;5.70;;;2.45;;
14235;SDS011;7202;50.718;7.072;2024-02-21T12:18:04;4.65;;;2.60;;
14235;SDS011;7202;50.718;7.072;2024-02-21T12:20:33;4.13;;;2.50;;
14235;SDS011;7202;50.718;7.072;2024-02-21T12:23:08;9.15;;;3.63;;
14235;SDS011;7202;50.718;7.072;2024-02-21T12:25:37;7.97;;;3.08;;
14235;SDS011;7202;50.718;7.072;2024-02-21T12:28:07;8.15;;;3.13;;
14235;SDS011;7202;50.718;7.072;2024-02-21T12:30:36;4.55;;;2.60;;
14235;SDS011;7202;50.718;7.072;2024-02-21T12:33:06;5.88;;;2.65;;
14235;SDS011;7202;50.718;7.072;2024-02-21T12:35:35;6.90;;;2.72;;
14235;SDS011;7202;50.718;7.072;2024-02-21T12:38:05;10.35;;;2.97;;
14235;SDS011;7202;50.718;7.072;2024-02-21T12:40:33;4.82;;;2.85;;
14235;SDS011;7202;50.718;7.072;2024-02-21T12:43:02;7.60;;;2.88;;
14235;SDS011;7202;50.718;7.072;2024-02-21T12:45:31;6.88;;;2.47;;
14235;SDS011;7202;50.718;7.072;2024-02-21T12:48:01;9.77;;;2.40;;
14235;SDS011;7202;50.718;7.072;2024-02-21T12:50:31;6.50;;;3.10;;
14235;SDS011;7202;50.718;7.072;2024-02-21T12:52:59;7.35;;;2.85;;
14235;SDS011;7202;50.718;7.072;2024-02-21T12:55:30;6.25;;;2.78;;
14235;SDS011;7202;50.718;7.072;2024-02-21T12:58:00;7.43;;;2.85;;
14235;SDS011;7202;50.718;7.072;2024-02-21T13:00:32;4.90;;;2.25;;
14235;SDS011;7202;50.718;7.072;2024-02-21T13:03:02;6.00;;;2.45;;
14235;SDS011;7202;50.718;7.072;2024-02-21T13:05:31;4.47;;;2.10;;
14235;SDS011;7202;50.718;7.072;2024-02-21T13:08:00;6.80;;;3.03;;
14235;SDS011;7202;50.718;7.072;2024-02-21T13:10:30;5.82;;;2.60;;
14235;SDS011;7202;50.718;7.072;2024-02-21T13:13:00;4.78;;;2.58;;
14235;SDS011;7202;50.718;7.072;2024-02-21T13:15:29;7.40;;;2.65;;
14235;SDS011;7202;50.718;7.072;2024-02-21T13:17:57;7.28;;;2.90;;
14235;SDS011;7202;50.718;7.072;2024-02-21T13:20:26;5.05;;;2.25;;
14235;SDS011;7202;50.718;7.072;2024-02-21T13:22:56;7.55;;;2.80;;
14235;SDS011;7202;50.718;7.072;2024-02-21T13:25:24;5.28;;;2.58;;
14235;SDS011;7202;50.718;7.072;2024-02-21T13:27:54;8.50;;;2.70;;
14235;SDS011;7202;50.718;7.072;2024-02-21T13:30:23;8.20;;;2.47;;
14235;SDS011;7202;50.718;7.072;2024-02-21T13:32:52;4.93;;;2.47;;
14235;SDS011;7202;50.718;7.072;2024-02-21T13:35:22;5.03;;;2.60;;
14235;SDS011;7202;50.718;7.072;2024-02-21T13:37:50;7.60;;;2.47;;
14235;SDS011;7202;50.718;7.072;2024-02-21T13:40:19;7.07;;;2.60;;
14235;SDS011;7202;50.718;7.072;2024-02-21T13:42:48;5.45;;;2.28;;
14235;SDS011;7202;50.718;7.072;2024-02-21T13:45:19;6.22;;;2.28;;
14235;SDS011;7202;50.718;7.072;2024-02-21T13:47:48;5.90;;;2.13;;
14235;SDS011;7202;50.718;7.072;2024-02-21T13:50:16;7.72;;;2.42;;
14235;SDS011;7202;50.718;7.072;2024-02-21T13:52:54;5.32;;;2.38;;
14235;SDS011;7202;50.718;7.072;2024-02-21T13:55:23;8.43;;;2.58;;
14235;SDS011;7202;50.718;7.072;2024-02-21T13:57:53;4.15;;;2.50;;
14235;SDS011;7202;50.718;7.072;2024-02-21T14:00:22;5.25;;;2.33;;
14235;SDS011;7202;50.718;7.072;2024-02-21T14:02:51;4.80;;;2.05;;
14235;SDS011;7202;50.718;7.072;2024-02-21T14:05:21;4.90;;;2.42;;
14235;SDS011;7202;50.718;7.072;2024-02-21T14:07:50;5.78;;;2.50;;
14235;SDS011;7202;50.718;7.072;2024-02-21T14:10:21;4.38;;;2.40;;
14235;SDS011;7202;50.718;7.072;2024-02-21T14:12:49;6.88;;;2.45;;
14235;SDS011;7202;50.718;7.072;2024-02-21T14:15:18;5.35;;;2.00;;
14235;SDS011;7202;50.718;7.072;2024-02-21T14:17:48;5.60;;;2.17;;
14235;SDS011;7202;50.718;7.072;2024-02-21T14:20:16;6.75;;;2.42;;
14235;SDS011;7202;50.718;7.072;2024-02-21T14:22:45;6.25;;;2.20;;
14235;SDS011;7202;50.718;7.072;2024-02-21T14:25:14;4.50;;;2.15;;
14235;SDS011;7202;50.718;7.072;2024-02-21T14:27:43;6.40;;;2.20;;
14235;SDS011;7202;50.718;7.072;2024-02-21T14:30:11;4.88;;;2.28;;
14235;SDS011;7202;50.718;7.072;2024-02-21T14:32:41;5.00;;;2.15;;
14235;SDS011;7202;50.718;7.072;2024-02-21T14:35:13;4.55;;;2.10;;
14235;SDS011;7202;50.718;7.072;2024-02-21T14:37:42;5.00;;;2.00;;
14235;SDS011;7202;50.718;7.072;2024-02-21T14:40:12;5.20;;;1.95;;
14235;SDS011;7202;50.718;7.072;2024-02-21T14:42:41;4.97;;;2.10;;
14235;SDS011;7202;50.718;7.072;2024-02-21T14:45:10;6.18;;;2.83;;
14235;SDS011;7202;50.718;7.072;2024-02-21T14:47:40;3.17;;;1.58;;
14235;SDS011;7202;50.718;7.072;2024-02-21T14:50:09;5.47;;;2.47;;
14235;SDS011;7202;50.718;7.072;2024-02-21T14:52:39;4.05;;;2.00;;
14235;SDS011;7202;50.718;7.072;2024-02-21T14:55:08;7.65;;;2.15;;
14235;SDS011;7202;50.718;7.072;2024-02-21T14:57:37;4.38;;;2.08;;
14235;SDS011;7202;50.718;7.072;2024-02-21T15:00:08;5.70;;;2.08;;
14235;SDS011;7202;50.718;7.072;2024-02-21T15:02:38;5.50;;;1.88;;
14235;SDS011;7202;50.718;7.072;2024-02-21T15:05:07;4.38;;;2.20;;
14235;SDS011;7202;50.718;7.072;2024-02-21T15:07:36;2.67;;;1.85;;
14235;SDS011;7202;50.718;7.072;2024-02-21T15:10:06;7.25;;;2.33;;
14235;SDS011;7202;50.718;7.072;2024-02-21T15:12:35;7.80;;;2.08;;